sensor_id;sensor_type;location;lat;lon;timestamp;temperature;humidity
26537;DHT22;14204;51.262;5.488;2024-01-16T00:01:14;3.00;99.90
26537;DHT22;14204;51.262;5.488;2024-01-16T00:03:40;3.00;99.90
26537;DHT22;14204;51.262;5.488;2024-01-16T00:06:06;3.00;99.90
26537;DHT22;14204;51.262;5.488;2024-01-16T00:08:32;3.10;99.90
26537;DHT22;14204;51.262;5.488;2024-01-16T00:10:58;3.10;99.90
26537;DHT22;14204;51.262;5.488;2024-01-16T00:13:23;3.00;99.90
26537;DHT22;14204;51.262;5.488;2024-01-16T00:15:49;3.10;99.90
26537;DHT22;14204;51.262;5.488;2024-01-16T00:18:15;3.10;99.90
26537;DHT22;14204;51.262;5.488;2024-01-16T00:20:41;3.10;99.90
26537;DHT22;14204;51.262;5.488;2024-01-16T00:23:07;3.10;99.90
26537;DHT22;14204;51.262;5.488;2024-01-16T00:25:33;3.10;99.90
26537;DHT22;14204;51.262;5.488;2024-01-16T00:28:01;3.10;99.90
26537;DHT22;14204;51.262;5.488;2024-01-16T00:30:27;3.20;99.90
26537;DHT22;14204;51.262;5.488;2024-01-16T00:32:53;3.20;99.90
26537;DHT22;14204;51.262;5.488;2024-01-16T00:35:18;3.10;99.90
26537;DHT22;14204;51.262;5.488;2024-01-16T00:37:44;3.10;99.90
26537;DHT22;14204;51.262;5.488;2024-01-16T00:40:11;3.20;99.90
26537;DHT22;14204;51.262;5.488;2024-01-16T00:42:36;3.10;99.90
26537;DHT22;14204;51.262;5.488;2024-01-16T00:45:02;3.10;99.90
26537;DHT22;14204;51.262;5.488;2024-01-16T00:47:28;3.10;99.90
26537;DHT22;14204;51.262;5.488;2024-01-16T00:49:54;3.00;99.90
26537;DHT22;14204;51.262;5.488;2024-01-16T00:52:19;3.10;99.90
26537;DHT22;14204;51.262;5.488;2024-01-16T00:54:45;3.10;99.90
26537;DHT22;14204;51.262;5.488;2024-01-16T00:57:11;3.00;99.90
26537;DHT22;14204;51.262;5.488;2024-01-16T00:59:37;3.00;99.90
26537;DHT22;14204;51.262;5.488;2024-01-16T01:02:03;3.00;99.90
26537;DHT22;14204;51.262;5.488;2024-01-16T01:04:33;3.00;99.90
26537;DHT22;14204;51.262;5.488;2024-01-16T01:06:59;3.00;99.90
26537;DHT22;14204;51.262;5.488;2024-01-16T01:09:25;3.00;99.90
26537;DHT22;14204;51.262;5.488;2024-01-16T01:11:50;3.00;99.90
26537;DHT22;14204;51.262;5.488;2024-01-16T01:14:16;3.10;99.90
26537;DHT22;14204;51.262;5.488;2024-01-16T01:16:42;3.10;99.90
26537;DHT22;14204;51.262;5.488;2024-01-16T01:19:07;3.10;99.90
26537;DHT22;14204;51.262;5.488;2024-01-16T01:21:35;3.10;99.90
26537;DHT22;14204;51.262;5.488;2024-01-16T01:24:01;2.90;99.90
26537;DHT22;14204;51.262;5.488;2024-01-16T01:26:26;3.10;99.90
26537;DHT22;14204;51.262;5.488;2024-01-16T01:28:52;3.00;99.90
26537;DHT22;14204;51.262;5.488;2024-01-16T01:31:18;3.00;99.90
26537;DHT22;14204;51.262;5.488;2024-01-16T01:33:43;3.00;99.90
26537;DHT22;14204;51.262;5.488;2024-01-16T01:36:10;3.00;99.90
26537;DHT22;14204;51.262;5.488;2024-01-16T01:38:35;2.90;99.90
26537;DHT22;14204;51.262;5.488;2024-01-16T01:41:01;3.00;99.90
26537;DHT22;14204;51.262;5.488;2024-01-16T01:43:27;3.00;99.90
26537;DHT22;14204;51.262;5.488;2024-01-16T01:46:17;3.00;99.90
26537;DHT22;14204;51.262;5.488;2024-01-16T01:48:45;3.00;99.90
26537;DHT22;14204;51.262;5.488;2024-01-16T01:51:12;2.90;99.90
26537;DHT22;14204;51.262;5.488;2024-01-16T01:53:39;3.00;99.90
26537;DHT22;14204;51.262;5.488;2024-01-16T01:56:18;3.00;99.90
26537;DHT22;14204;51.262;5.488;2024-01-16T01:58:46;2.90;99.90
26537;DHT22;14204;51.262;5.488;2024-01-16T02:01:14;2.90;99.90
26537;DHT22;14204;51.262;5.488;2024-01-16T02:03:44;3.00;99.90
26537;DHT22;14204;51.262;5.488;2024-01-16T02:06:11;3.00;99.90
26537;DHT22;14204;51.262;5.488;2024-01-16T02:08:38;2.90;99.90
26537;DHT22;14204;51.262;5.488;2024-01-16T02:11:05;3.00;99.90
26537;DHT22;14204;51.262;5.488;2024-01-16T02:13:31;3.10;99.90
26537;DHT22;14204;51.262;5.488;2024-01-16T02:15:57;3.20;99.90
26537;DHT22;14204;51.262;5.488;2024-01-16T02:18:22;3.10;99.90
26537;DHT22;14204;51.262;5.488;2024-01-16T02:20:48;3.20;99.90
26537;DHT22;14204;51.262;5.488;2024-01-16T02:23:15;3.20;99.90
26537;DHT22;14204;51.262;5.488;2024-01-16T02:25:44;3.20;99.90
26537;DHT22;14204;51.262;5.488;2024-01-16T02:28:10;3.20;99.90
26537;DHT22;14204;51.262;5.488;2024-01-16T02:30:35;3.30;99.90
26537;DHT22;14204;51.262;5.488;2024-01-16T02:33:01;3.30;99.90
26537;DHT22;14204;51.262;5.488;2024-01-16T02:35:29;3.30;99.90
26537;DHT22;14204;51.262;5.488;2024-01-16T02:37:54;3.30;99.90
26537;DHT22;14204;51.262;5.488;2024-01-16T02:40:20;3.20;99.90
26537;DHT22;14204;51.262;5.488;2024-01-16T02:42:46;3.20;99.90
26537;DHT22;14204;51.262;5.488;2024-01-16T02:45:12;3.20;99.90
26537;DHT22;14204;51.262;5.488;2024-01-16T02:47:38;3.20;99.90
26537;DHT22;14204;51.262;5.488;2024-01-16T02:50:04;3.20;99.90
26537;DHT22;14204;51.262;5.488;2024-01-16T02:52:30;3.30;99.90
26537;DHT22;14204;51.262;5.488;2024-01-16T02:54:56;3.30;99.90
26537;DHT22;14204;51.262;5.488;2024-01-16T02:57:22;3.30;99.90
26537;DHT22;14204;51.262;5.488;2024-01-16T02:59:47;3.30;99.90
26537;DHT22;14204;51.262;5.488;2024-01-16T03:02:13;3.30;99.90
26537;DHT22;14204;51.262;5.488;2024-01-16T03:04:39;3.20;99.90
26537;DHT22;14204;51.262;5.488;2024-01-16T03:07:05;3.20;99.90
26537;DHT22;14204;51.262;5.488;2024-01-16T03:09:31;3.20;99.90
26537;DHT22;14204;51.262;5.488;2024-01-16T03:11:57;3.20;99.90
26537;DHT22;14204;51.262;5.488;2024-01-16T03:14:23;3.20;99.90
26537;DHT22;14204;51.262;5.488;2024-01-16T03:16:49;3.10;99.90
26537;DHT22;14204;51.262;5.488;2024-01-16T03:19:14;3.20;99.90
26537;DHT22;14204;51.262;5.488;2024-01-16T03:21:41;3.10;99.90
26537;DHT22;14204;51.262;5.488;2024-01-16T03:24:06;3.10;99.90
26537;DHT22;14204;51.262;5.488;2024-01-16T03:26:33;3.10;99.90
26537;DHT22;14204;51.262;5.488;2024-01-16T03:28:58;3.00;99.90
26537;DHT22;14204;51.262;5.488;2024-01-16T03:31:24;3.00;99.90
26537;DHT22;14204;51.262;5.488;2024-01-16T03:33:50;2.90;99.90
26537;DHT22;14204;51.262;5.488;2024-01-16T03:36:16;2.90;99.90
26537;DHT22;14204;51.262;5.488;2024-01-16T03:38:42;2.90;99.90
26537;DHT22;14204;51.262;5.488;2024-01-16T03:41:10;2.90;99.90
26537;DHT22;14204;51.262;5.488;2024-01-16T03:43:36;2.80;99.90
26537;DHT22;14204;51.262;5.488;2024-01-16T03:46:03;2.80;99.90
26537;DHT22;14204;51.262;5.488;2024-01-16T03:48:28;2.80;99.90
26537;DHT22;14204;51.262;5.488;2024-01-16T03:50:55;2.70;99.90
26537;DHT22;14204;51.262;5.488;2024-01-16T03:53:22;2.70;99.90
26537;DHT22;14204;51.262;5.488;2024-01-16T03:55:48;2.70;99.90
26537;DHT22;14204;51.262;5.488;2024-01-16T03:58:15;2.70;99.90
26537;DHT22;14204;51.262;5.488;2024-01-16T04:00:41;2.80;99.90
26537;DHT22;14204;51.262;5.488;2024-01-16T04:03:07;2.70;99.90
26537;DHT22;14204;51.262;5.488;2024-01-16T04:05:33;2.70;99.90
26537;DHT22;14204;51.262;5.488;2024-01-16T04:07:59;2.70;99.90
26537;DHT22;14204;51.262;5.488;2024-01-16T04:10:25;2.70;99.90
26537;DHT22;14204;51.262;5.488;2024-01-16T04:12:51;2.70;99.90
26537;DHT22;14204;51.262;5.488;2024-01-16T04:15:17;2.70;99.90
26537;DHT22;14204;51.262;5.488;2024-01-16T04:17:43;2.60;99.90
26537;DHT22;14204;51.262;5.488;2024-01-16T04:20:09;2.60;99.90
26537;DHT22;14204;51.262;5.488;2024-01-16T04:22:36;2.60;99.90
26537;DHT22;14204;51.262;5.488;2024-01-16T04:25:02;2.50;99.90
26537;DHT22;14204;51.262;5.488;2024-01-16T04:27:33;2.60;99.90
26537;DHT22;14204;51.262;5.488;2024-01-16T04:29:58;2.50;99.90
26537;DHT22;14204;51.262;5.488;2024-01-16T04:32:24;2.60;99.90
26537;DHT22;14204;51.262;5.488;2024-01-16T04:34:50;2.50;99.90
26537;DHT22;14204;51.262;5.488;2024-01-16T04:37:16;2.50;99.90
26537;DHT22;14204;51.262;5.488;2024-01-16T04:39:41;2.50;99.90
26537;DHT22;14204;51.262;5.488;2024-01-16T04:42:07;2.50;99.90
26537;DHT22;14204;51.262;5.488;2024-01-16T04:44:33;2.50;99.90
26537;DHT22;14204;51.262;5.488;2024-01-16T04:46:58;2.50;99.90
26537;DHT22;14204;51.262;5.488;2024-01-16T04:49:24;2.50;99.90
26537;DHT22;14204;51.262;5.488;2024-01-16T04:51:50;2.40;99.90
26537;DHT22;14204;51.262;5.488;2024-01-16T04:54:15;2.30;99.90
26537;DHT22;14204;51.262;5.488;2024-01-16T04:56:41;2.30;99.90
26537;DHT22;14204;51.262;5.488;2024-01-16T04:59:07;2.30;99.90
26537;DHT22;14204;51.262;5.488;2024-01-16T05:01:32;2.20;99.90
26537;DHT22;14204;51.262;5.488;2024-01-16T05:03:58;2.30;99.90
26537;DHT22;14204;51.262;5.488;2024-01-16T05:06:24;2.20;99.90
26537;DHT22;14204;51.262;5.488;2024-01-16T05:08:50;2.20;99.90
26537;DHT22;14204;51.262;5.488;2024-01-16T05:11:15;2.20;99.90
26537;DHT22;14204;51.262;5.488;2024-01-16T05:13:41;2.20;99.90
26537;DHT22;14204;51.262;5.488;2024-01-16T05:16:07;2.20;99.90
26537;DHT22;14204;51.262;5.488;2024-01-16T05:18:33;2.10;99.90
26537;DHT22;14204;51.262;5.488;2024-01-16T05:20:59;2.10;99.90
26537;DHT22;14204;51.262;5.488;2024-01-16T05:23:25;2.20;99.90
26537;DHT22;14204;51.262;5.488;2024-01-16T05:25:51;2.10;99.90
26537;DHT22;14204;51.262;5.488;2024-01-16T05:28:16;2.20;99.90
26537;DHT22;14204;51.262;5.488;2024-01-16T05:30:42;2.10;99.90
26537;DHT22;14204;51.262;5.488;2024-01-16T05:33:08;2.10;99.90
26537;DHT22;14204;51.262;5.488;2024-01-16T05:35:34;2.10;99.90
26537;DHT22;14204;51.262;5.488;2024-01-16T05:38:00;2.10;99.90
26537;DHT22;14204;51.262;5.488;2024-01-16T05:40:26;2.10;99.90
26537;DHT22;14204;51.262;5.488;2024-01-16T05:42:51;2.10;99.90
26537;DHT22;14204;51.262;5.488;2024-01-16T05:45:18;2.00;99.90
26537;DHT22;14204;51.262;5.488;2024-01-16T05:47:43;2.10;99.90
26537;DHT22;14204;51.262;5.488;2024-01-16T05:50:09;2.10;99.90
26537;DHT22;14204;51.262;5.488;2024-01-16T05:52:36;2.00;99.90
26537;DHT22;14204;51.262;5.488;2024-01-16T05:55:03;2.10;99.90
26537;DHT22;14204;51.262;5.488;2024-01-16T05:57:29;2.10;99.90
26537;DHT22;14204;51.262;5.488;2024-01-16T05:59:59;2.10;99.90
26537;DHT22;14204;51.262;5.488;2024-01-16T06:02:25;2.10;99.90
26537;DHT22;14204;51.262;5.488;2024-01-16T06:04:51;2.00;99.90
26537;DHT22;14204;51.262;5.488;2024-01-16T06:07:16;2.00;99.90
26537;DHT22;14204;51.262;5.488;2024-01-16T06:09:42;2.00;99.90
26537;DHT22;14204;51.262;5.488;2024-01-16T06:12:08;1.90;99.90
26537;DHT22;14204;51.262;5.488;2024-01-16T06:14:34;1.90;99.90
26537;DHT22;14204;51.262;5.488;2024-01-16T06:17:00;1.80;99.90
26537;DHT22;14204;51.262;5.488;2024-01-16T06:19:26;1.80;99.90
26537;DHT22;14204;51.262;5.488;2024-01-16T06:21:52;1.80;99.90
26537;DHT22;14204;51.262;5.488;2024-01-16T06:24:17;1.80;99.90
26537;DHT22;14204;51.262;5.488;2024-01-16T06:26:43;1.80;99.90
26537;DHT22;14204;51.262;5.488;2024-01-16T06:29:09;1.70;99.90
26537;DHT22;14204;51.262;5.488;2024-01-16T06:31:34;1.80;99.90
26537;DHT22;14204;51.262;5.488;2024-01-16T06:34:00;1.80;99.90
26537;DHT22;14204;51.262;5.488;2024-01-16T06:36:26;1.80;99.90
26537;DHT22;14204;51.262;5.488;2024-01-16T06:38:53;1.80;99.90
26537;DHT22;14204;51.262;5.488;2024-01-16T06:41:18;1.80;99.90
26537;DHT22;14204;51.262;5.488;2024-01-16T06:43:44;1.70;99.90
26537;DHT22;14204;51.262;5.488;2024-01-16T06:46:10;1.70;99.90
26537;DHT22;14204;51.262;5.488;2024-01-16T06:48:36;1.70;99.90
26537;DHT22;14204;51.262;5.488;2024-01-16T06:51:05;1.70;99.90
26537;DHT22;14204;51.262;5.488;2024-01-16T06:53:31;1.80;99.90
26537;DHT22;14204;51.262;5.488;2024-01-16T06:55:57;1.70;99.90
26537;DHT22;14204;51.262;5.488;2024-01-16T06:58:22;1.70;99.90
26537;DHT22;14204;51.262;5.488;2024-01-16T07:00:48;1.70;99.90
26537;DHT22;14204;51.262;5.488;2024-01-16T07:03:14;1.70;99.90
26537;DHT22;14204;51.262;5.488;2024-01-16T07:05:40;1.70;99.90
26537;DHT22;14204;51.262;5.488;2024-01-16T07:08:09;1.70;99.90
26537;DHT22;14204;51.262;5.488;2024-01-16T07:10:35;1.70;99.90
26537;DHT22;14204;51.262;5.488;2024-01-16T07:13:01;1.80;99.90
26537;DHT22;14204;51.262;5.488;2024-01-16T07:15:27;1.70;99.90
26537;DHT22;14204;51.262;5.488;2024-01-16T07:17:53;1.70;99.90
26537;DHT22;14204;51.262;5.488;2024-01-16T07:20:19;1.80;99.90
26537;DHT22;14204;51.262;5.488;2024-01-16T07:22:45;1.90;99.90
26537;DHT22;14204;51.262;5.488;2024-01-16T07:25:11;1.80;99.90
26537;DHT22;14204;51.262;5.488;2024-01-16T07:27:37;1.80;99.90
26537;DHT22;14204;51.262;5.488;2024-01-16T07:30:06;1.80;99.90
26537;DHT22;14204;51.262;5.488;2024-01-16T07:32:32;1.80;99.90
26537;DHT22;14204;51.262;5.488;2024-01-16T07:34:58;1.80;99.90
26537;DHT22;14204;51.262;5.488;2024-01-16T07:37:24;1.70;99.90
26537;DHT22;14204;51.262;5.488;2024-01-16T07:39:50;1.70;99.90
26537;DHT22;14204;51.262;5.488;2024-01-16T07:42:16;1.70;99.90
26537;DHT22;14204;51.262;5.488;2024-01-16T07:44:42;1.70;99.90
26537;DHT22;14204;51.262;5.488;2024-01-16T07:47:07;1.80;99.90
26537;DHT22;14204;51.262;5.488;2024-01-16T07:49:34;1.80;99.90
26537;DHT22;14204;51.262;5.488;2024-01-16T07:51:59;1.70;99.90
26537;DHT22;14204;51.262;5.488;2024-01-16T07:54:25;1.80;99.90
26537;DHT22;14204;51.262;5.488;2024-01-16T07:56:51;1.70;99.90
26537;DHT22;14204;51.262;5.488;2024-01-16T07:59:17;1.70;99.90
26537;DHT22;14204;51.262;5.488;2024-01-16T08:01:43;1.70;99.90
26537;DHT22;14204;51.262;5.488;2024-01-16T08:04:09;1.70;99.90
26537;DHT22;14204;51.262;5.488;2024-01-16T08:06:35;1.80;99.90
26537;DHT22;14204;51.262;5.488;2024-01-16T08:09:00;1.80;99.90
26537;DHT22;14204;51.262;5.488;2024-01-16T08:11:26;1.80;99.90
26537;DHT22;14204;51.262;5.488;2024-01-16T08:13:53;1.80;99.90
26537;DHT22;14204;51.262;5.488;2024-01-16T08:16:18;1.90;99.90
26537;DHT22;14204;51.262;5.488;2024-01-16T08:18:44;1.90;99.90
26537;DHT22;14204;51.262;5.488;2024-01-16T08:21:10;2.00;99.90
26537;DHT22;14204;51.262;5.488;2024-01-16T08:23:37;2.00;99.90
26537;DHT22;14204;51.262;5.488;2024-01-16T08:26:02;2.00;99.90
26537;DHT22;14204;51.262;5.488;2024-01-16T08:28:28;2.00;99.90
26537;DHT22;14204;51.262;5.488;2024-01-16T08:30:54;2.10;99.90
26537;DHT22;14204;51.262;5.488;2024-01-16T08:33:20;2.10;99.90
26537;DHT22;14204;51.262;5.488;2024-01-16T08:35:45;2.00;99.90
26537;DHT22;14204;51.262;5.488;2024-01-16T08:38:11;2.00;99.90
26537;DHT22;14204;51.262;5.488;2024-01-16T08:40:37;2.10;99.90
26537;DHT22;14204;51.262;5.488;2024-01-16T08:43:03;2.10;99.90
26537;DHT22;14204;51.262;5.488;2024-01-16T08:45:29;2.00;99.90
26537;DHT22;14204;51.262;5.488;2024-01-16T08:47:55;2.00;99.90
26537;DHT22;14204;51.262;5.488;2024-01-16T08:50:20;2.00;99.90
26537;DHT22;14204;51.262;5.488;2024-01-16T08:52:46;2.00;99.90
26537;DHT22;14204;51.262;5.488;2024-01-16T08:55:12;2.00;99.90
26537;DHT22;14204;51.262;5.488;2024-01-16T08:57:37;2.00;99.90
26537;DHT22;14204;51.262;5.488;2024-01-16T09:00:07;2.00;99.90
26537;DHT22;14204;51.262;5.488;2024-01-16T09:02:35;2.00;99.90
26537;DHT22;14204;51.262;5.488;2024-01-16T09:05:01;2.00;99.90
26537;DHT22;14204;51.262;5.488;2024-01-16T09:07:27;2.10;99.90
26537;DHT22;14204;51.262;5.488;2024-01-16T09:09:53;2.20;99.90
26537;DHT22;14204;51.262;5.488;2024-01-16T09:12:19;2.10;99.90
26537;DHT22;14204;51.262;5.488;2024-01-16T09:14:45;2.20;99.90
26537;DHT22;14204;51.262;5.488;2024-01-16T09:17:11;2.10;99.90
26537;DHT22;14204;51.262;5.488;2024-01-16T09:19:37;2.30;99.90
26537;DHT22;14204;51.262;5.488;2024-01-16T09:22:03;2.30;99.90
26537;DHT22;14204;51.262;5.488;2024-01-16T09:24:29;2.20;99.90
26537;DHT22;14204;51.262;5.488;2024-01-16T09:26:55;2.30;99.90
26537;DHT22;14204;51.262;5.488;2024-01-16T09:29:21;2.30;99.90
26537;DHT22;14204;51.262;5.488;2024-01-16T09:31:50;2.40;99.90
26537;DHT22;14204;51.262;5.488;2024-01-16T09:34:18;2.30;99.90
26537;DHT22;14204;51.262;5.488;2024-01-16T09:36:43;2.40;99.90
26537;DHT22;14204;51.262;5.488;2024-01-16T09:39:09;2.40;99.90
26537;DHT22;14204;51.262;5.488;2024-01-16T09:41:39;2.50;99.90
26537;DHT22;14204;51.262;5.488;2024-01-16T09:44:06;2.60;99.90
26537;DHT22;14204;51.262;5.488;2024-01-16T09:46:33;2.60;99.90
26537;DHT22;14204;51.262;5.488;2024-01-16T09:49:00;2.70;99.90
26537;DHT22;14204;51.262;5.488;2024-01-16T09:51:27;2.70;99.90
26537;DHT22;14204;51.262;5.488;2024-01-16T09:53:53;2.70;99.90
26537;DHT22;14204;51.262;5.488;2024-01-16T09:56:22;2.80;99.90
26537;DHT22;14204;51.262;5.488;2024-01-16T09:58:53;2.90;99.90
26537;DHT22;14204;51.262;5.488;2024-01-16T10:01:20;2.90;99.90
26537;DHT22;14204;51.262;5.488;2024-01-16T10:03:47;3.10;99.90
26537;DHT22;14204;51.262;5.488;2024-01-16T10:06:13;3.00;99.90
26537;DHT22;14204;51.262;5.488;2024-01-16T10:08:41;3.10;99.90
26537;DHT22;14204;51.262;5.488;2024-01-16T10:11:06;3.20;99.90
26537;DHT22;14204;51.262;5.488;2024-01-16T10:13:33;3.30;99.90
26537;DHT22;14204;51.262;5.488;2024-01-16T10:15:59;3.20;99.90
26537;DHT22;14204;51.262;5.488;2024-01-16T10:18:29;3.30;99.90
26537;DHT22;14204;51.262;5.488;2024-01-16T10:20:59;3.30;99.90
26537;DHT22;14204;51.262;5.488;2024-01-16T10:23:32;3.30;99.90
26537;DHT22;14204;51.262;5.488;2024-01-16T10:26:05;3.20;99.90
26537;DHT22;14204;51.262;5.488;2024-01-16T10:28:36;3.00;99.90
26537;DHT22;14204;51.262;5.488;2024-01-16T10:31:06;3.10;99.90
26537;DHT22;14204;51.262;5.488;2024-01-16T10:33:32;3.20;99.90
26537;DHT22;14204;51.262;5.488;2024-01-16T10:36:11;3.20;99.90
26537;DHT22;14204;51.262;5.488;2024-01-16T10:38:38;3.20;99.90
26537;DHT22;14204;51.262;5.488;2024-01-16T10:41:15;3.30;99.90
26537;DHT22;14204;51.262;5.488;2024-01-16T10:43:43;3.40;99.90
26537;DHT22;14204;51.262;5.488;2024-01-16T10:46:18;3.40;99.90
26537;DHT22;14204;51.262;5.488;2024-01-16T10:48:45;3.40;99.90
26537;DHT22;14204;51.262;5.488;2024-01-16T10:51:23;3.30;99.90
26537;DHT22;14204;51.262;5.488;2024-01-16T10:53:58;3.40;99.90
26537;DHT22;14204;51.262;5.488;2024-01-16T10:56:24;3.40;99.90
26537;DHT22;14204;51.262;5.488;2024-01-16T10:59:02;3.40;99.90
26537;DHT22;14204;51.262;5.488;2024-01-16T11:01:32;3.50;99.90
26537;DHT22;14204;51.262;5.488;2024-01-16T11:03:58;3.40;99.90
26537;DHT22;14204;51.262;5.488;2024-01-16T11:06:26;3.40;99.90
26537;DHT22;14204;51.262;5.488;2024-01-16T11:08:54;3.40;99.90
26537;DHT22;14204;51.262;5.488;2024-01-16T11:11:22;3.40;99.90
26537;DHT22;14204;51.262;5.488;2024-01-16T11:13:49;3.40;99.90
26537;DHT22;14204;51.262;5.488;2024-01-16T11:16:15;3.20;99.90
26537;DHT22;14204;51.262;5.488;2024-01-16T11:18:41;3.20;99.90
26537;DHT22;14204;51.262;5.488;2024-01-16T11:21:10;3.20;99.90
26537;DHT22;14204;51.262;5.488;2024-01-16T11:23:37;3.10;99.90
26537;DHT22;14204;51.262;5.488;2024-01-16T11:26:31;3.20;99.90
26537;DHT22;14204;51.262;5.488;2024-01-16T11:31:52;3.30;99.90
26537;DHT22;14204;51.262;5.488;2024-01-16T11:37:11;3.40;99.90
26537;DHT22;14204;51.262;5.488;2024-01-16T11:39:38;3.30;99.90
26537;DHT22;14204;51.262;5.488;2024-01-16T11:42:04;3.30;99.90
26537;DHT22;14204;51.262;5.488;2024-01-16T11:44:56;3.30;99.90
26537;DHT22;14204;51.262;5.488;2024-01-16T11:47:23;3.50;99.90
26537;DHT22;14204;51.262;5.488;2024-01-16T11:49:51;3.40;99.90
26537;DHT22;14204;51.262;5.488;2024-01-16T11:52:42;3.30;99.90
26537;DHT22;14204;51.262;5.488;2024-01-16T11:55:29;3.40;99.90
26537;DHT22;14204;51.262;5.488;2024-01-16T12:01:12;3.30;99.90
26537;DHT22;14204;51.262;5.488;2024-01-16T12:03:38;3.30;99.90
26537;DHT22;14204;51.262;5.488;2024-01-16T12:06:04;3.40;99.90
26537;DHT22;14204;51.262;5.488;2024-01-16T12:08:32;3.40;99.90
26537;DHT22;14204;51.262;5.488;2024-01-16T12:10:58;3.40;99.90
26537;DHT22;14204;51.262;5.488;2024-01-16T12:13:25;3.30;99.90
26537;DHT22;14204;51.262;5.488;2024-01-16T12:16:01;3.40;99.90
26537;DHT22;14204;51.262;5.488;2024-01-16T12:18:27;3.40;99.90
26537;DHT22;14204;51.262;5.488;2024-01-16T12:20:52;3.30;99.90
26537;DHT22;14204;51.262;5.488;2024-01-16T12:23:18;3.20;99.90
26537;DHT22;14204;51.262;5.488;2024-01-16T12:25:46;3.30;99.90
26537;DHT22;14204;51.262;5.488;2024-01-16T12:28:12;3.30;99.90
26537;DHT22;14204;51.262;5.488;2024-01-16T12:30:51;3.30;99.90
26537;DHT22;14204;51.262;5.488;2024-01-16T12:33:22;3.30;99.90
26537;DHT22;14204;51.262;5.488;2024-01-16T12:35:48;3.20;99.90
26537;DHT22;14204;51.262;5.488;2024-01-16T12:38:14;3.30;99.90
26537;DHT22;14204;51.262;5.488;2024-01-16T12:40:49;3.30;99.90
26537;DHT22;14204;51.262;5.488;2024-01-16T12:43:17;3.30;99.90
26537;DHT22;14204;51.262;5.488;2024-01-16T12:45:44;3.40;99.90
26537;DHT22;14204;51.262;5.488;2024-01-16T12:48:10;3.40;99.90
26537;DHT22;14204;51.262;5.488;2024-01-16T12:50:36;3.30;99.90
26537;DHT22;14204;51.262;5.488;2024-01-16T12:55:29;3.30;99.90
26537;DHT22;14204;51.262;5.488;2024-01-16T12:58:18;3.30;99.90
26537;DHT22;14204;51.262;5.488;2024-01-16T13:00:48;3.30;99.90
26537;DHT22;14204;51.262;5.488;2024-01-16T13:03:22;3.30;99.90
26537;DHT22;14204;51.262;5.488;2024-01-16T13:05:58;3.30;99.90
26537;DHT22;14204;51.262;5.488;2024-01-16T13:08:25;3.20;99.90
26537;DHT22;14204;51.262;5.488;2024-01-16T13:11:08;3.20;99.90
26537;DHT22;14204;51.262;5.488;2024-01-16T13:13:35;3.20;99.90
26537;DHT22;14204;51.262;5.488;2024-01-16T13:16:03;3.20;99.90
26537;DHT22;14204;51.262;5.488;2024-01-16T13:18:32;3.30;99.90
26537;DHT22;14204;51.262;5.488;2024-01-16T13:21:02;3.40;99.90
26537;DHT22;14204;51.262;5.488;2024-01-16T13:23:30;3.40;99.90
26537;DHT22;14204;51.262;5.488;2024-01-16T13:25:56;3.30;99.90
26537;DHT22;14204;51.262;5.488;2024-01-16T13:28:25;3.10;99.90
26537;DHT22;14204;51.262;5.488;2024-01-16T13:30:51;3.20;99.90
26537;DHT22;14204;51.262;5.488;2024-01-16T13:33:17;3.30;99.90
26537;DHT22;14204;51.262;5.488;2024-01-16T13:35:45;3.30;99.90
26537;DHT22;14204;51.262;5.488;2024-01-16T13:38:13;3.30;99.90
26537;DHT22;14204;51.262;5.488;2024-01-16T13:40:38;3.20;99.90
26537;DHT22;14204;51.262;5.488;2024-01-16T13:43:05;3.20;99.90
26537;DHT22;14204;51.262;5.488;2024-01-16T13:45:32;3.30;99.90
26537;DHT22;14204;51.262;5.488;2024-01-16T13:47:58;3.30;99.90
26537;DHT22;14204;51.262;5.488;2024-01-16T13:50:26;3.30;99.90
26537;DHT22;14204;51.262;5.488;2024-01-16T13:52:52;3.30;99.90
26537;DHT22;14204;51.262;5.488;2024-01-16T13:55:19;3.40;99.90
26537;DHT22;14204;51.262;5.488;2024-01-16T13:57:45;3.30;99.90
26537;DHT22;14204;51.262;5.488;2024-01-16T14:00:12;3.30;99.90
26537;DHT22;14204;51.262;5.488;2024-01-16T14:02:41;3.20;99.90
26537;DHT22;14204;51.262;5.488;2024-01-16T14:05:11;3.20;99.90
26537;DHT22;14204;51.262;5.488;2024-01-16T14:07:37;3.20;99.90
26537;DHT22;14204;51.262;5.488;2024-01-16T14:10:10;3.20;99.90
26537;DHT22;14204;51.262;5.488;2024-01-16T14:12:38;3.30;99.90
26537;DHT22;14204;51.262;5.488;2024-01-16T14:15:04;3.30;99.90
26537;DHT22;14204;51.262;5.488;2024-01-16T14:17:34;3.30;99.90
26537;DHT22;14204;51.262;5.488;2024-01-16T14:20:01;3.30;99.90
26537;DHT22;14204;51.262;5.488;2024-01-16T14:22:28;3.20;99.90
26537;DHT22;14204;51.262;5.488;2024-01-16T14:24:53;3.30;99.90
26537;DHT22;14204;51.262;5.488;2024-01-16T14:27:19;3.20;99.90
26537;DHT22;14204;51.262;5.488;2024-01-16T14:29:49;3.30;99.90
26537;DHT22;14204;51.262;5.488;2024-01-16T14:32:15;3.30;99.90
26537;DHT22;14204;51.262;5.488;2024-01-16T14:34:41;3.30;99.90
26537;DHT22;14204;51.262;5.488;2024-01-16T14:37:07;3.30;99.90
26537;DHT22;14204;51.262;5.488;2024-01-16T14:39:33;3.30;99.90
26537;DHT22;14204;51.262;5.488;2024-01-16T14:42:01;3.30;99.90
26537;DHT22;14204;51.262;5.488;2024-01-16T14:44:28;3.20;99.90
26537;DHT22;14204;51.262;5.488;2024-01-16T14:46:53;3.30;99.90
26537;DHT22;14204;51.262;5.488;2024-01-16T14:49:20;3.30;99.90
26537;DHT22;14204;51.262;5.488;2024-01-16T14:51:46;3.30;99.90
26537;DHT22;14204;51.262;5.488;2024-01-16T14:54:12;3.40;99.90
26537;DHT22;14204;51.262;5.488;2024-01-16T14:56:38;3.30;99.90
26537;DHT22;14204;51.262;5.488;2024-01-16T14:59:03;3.30;99.90
26537;DHT22;14204;51.262;5.488;2024-01-16T15:01:29;3.20;99.90
26537;DHT22;14204;51.262;5.488;2024-01-16T15:03:55;3.30;99.90
26537;DHT22;14204;51.262;5.488;2024-01-16T15:06:21;3.20;99.90
26537;DHT22;14204;51.262;5.488;2024-01-16T15:08:47;3.20;99.90
26537;DHT22;14204;51.262;5.488;2024-01-16T15:11:13;3.20;99.90
26537;DHT22;14204;51.262;5.488;2024-01-16T15:13:40;3.10;99.90
26537;DHT22;14204;51.262;5.488;2024-01-16T15:16:06;3.20;99.90
26537;DHT22;14204;51.262;5.488;2024-01-16T15:18:31;3.20;99.90
26537;DHT22;14204;51.262;5.488;2024-01-16T15:20:57;3.20;99.90
26537;DHT22;14204;51.262;5.488;2024-01-16T15:23:23;3.20;99.90
26537;DHT22;14204;51.262;5.488;2024-01-16T15:25:50;3.10;99.90
26537;DHT22;14204;51.262;5.488;2024-01-16T15:28:16;3.10;99.90
26537;DHT22;14204;51.262;5.488;2024-01-16T15:30:42;3.10;99.90
26537;DHT22;14204;51.262;5.488;2024-01-16T15:33:08;3.00;99.90
26537;DHT22;14204;51.262;5.488;2024-01-16T15:35:34;3.10;99.90
26537;DHT22;14204;51.262;5.488;2024-01-16T15:38:00;3.00;99.90
26537;DHT22;14204;51.262;5.488;2024-01-16T15:40:28;2.90;99.90
26537;DHT22;14204;51.262;5.488;2024-01-16T15:42:54;2.90;99.90
26537;DHT22;14204;51.262;5.488;2024-01-16T15:45:22;2.90;99.90
26537;DHT22;14204;51.262;5.488;2024-01-16T15:47:48;2.90;99.90
26537;DHT22;14204;51.262;5.488;2024-01-16T15:50:14;2.90;99.90
26537;DHT22;14204;51.262;5.488;2024-01-16T15:52:40;2.90;99.90
26537;DHT22;14204;51.262;5.488;2024-01-16T15:55:06;2.80;99.90